F/V Challenger — FIOS — position and weather

sailwx.info

Track history (hours):
 
Tides and Currents Weather Stations Pressure Air Temp Water Temp Dewpoint Dewpoint Depression Visibility Wind Speed Wind Dir Waves Ship Positions

F/V Challenger

Last reported at 2017-Sep-24 05:00 UTC. Time now 2017-Sep-24 05:11 UTC.
Position N 45°60' W 001°41'.

Length 17 m.

Type: Fishing. MMSI: 228120000.

Date/timePositionNaut miles runAvg speedWind from/ knotsBaromVisibWave heightAir tempDewpointWater temp
2017-Sep-24 05:00N 45°60' W 001°41'2 3.3
2017-Sep-24 04:30N 46°01' W 001°43'2 3.2
2017-Sep-24 03:59N 46°02' W 001°44'4 3.4
2017-Sep-24 02:54N 46°04' W 001°49'4 9.1
2017-Sep-24 02:30N 46°05' W 001°54'21 0.4
2017-Sep-22 02:00N 46°25' W 001°49'4 8.9
2017-Sep-22 01:30N 46°29' W 001°47'1 1.3
2017-Sep-22 01:00N 46°30' W 001°48'0 0.1
2017-Sep-22 00:30N 46°30' W 001°48'3 6.7
2017-Sep-22 00:00N 46°26' W 001°48'4 8.2
2017-Sep-21 23:30N 46°23' W 001°50'2 4.3
2017-Sep-21 23:00N 46°21' W 001°51'2 3.2
2017-Sep-21 22:30N 46°20' W 001°53'2 3.0
2017-Sep-21 22:00N 46°20' W 001°55'2 2.8
2017-Sep-21 21:28N 46°19' W 001°57'1 2.8
2017-Sep-21 21:00N 46°19' W 001°59'1 0.6
2017-Sep-21 19:30N 46°18' W 001°59'2 3.4
2017-Sep-21 18:55N 46°18' W 001°56'1 3.5
2017-Sep-21 18:29N 46°19' W 001°54'2 3.3
2017-Sep-21 18:00N 46°20' W 001°55'2 3.1
2017-Sep-21 17:30N 46°21' W 001°56'1 2.0
2017-Sep-21 17:00N 46°20' W 001°57'2 3.3
2017-Sep-21 16:29N 46°19' W 001°56'2 3.3
2017-Sep-21 16:00N 46°18' W 001°55'2 3.3
2017-Sep-21 15:30N 46°16' W 001°54'4 3.3
2017-Sep-21 14:16N 46°13' W 001°51'1 3.3
2017-Sep-21 13:59N 46°12' W 001°50'12 3.3
2017-Sep-21 10:21N 46°03' W 001°39'2 3.5
2017-Sep-21 09:44N 46°02' W 001°36'1 3.5
2017-Sep-21 09:30N 46°01' W 001°36'1 1.6
2017-Sep-21 08:57N 46°01' W 001°37'1 3.0
2017-Sep-21 08:30N 46°02' W 001°38'2 3.0
2017-Sep-21 08:00N 46°03' W 001°40'2 3.0
2017-Sep-21 07:30N 46°04' W 001°41'2 3.8
2017-Sep-21 07:00N 46°06' W 001°43'1 2.8
2017-Sep-21 06:30N 46°07' W 001°44'2 3.1
2017-Sep-21 05:59N 46°08' W 001°45'2 3.2
2017-Sep-21 05:30N 46°09' W 001°47'2 2.5
2017-Sep-21 04:46N 46°08' W 001°47'1 3.4
2017-Sep-21 04:21N 46°06' W 001°45'1 3.4
2017-Sep-21 04:00N 46°05' W 001°44'2 3.1
2017-Sep-21 03:30N 46°06' W 001°42'2 4.7
2017-Sep-21 03:00N 46°08' W 001°41'3 5.8
2017-Sep-21 02:27N 46°11' W 001°38'2 3.1
2017-Sep-21 01:55N 46°09' W 001°36'1 2.6
2017-Sep-21 01:30N 46°10' W 001°35'2 3.7
2017-Sep-21 00:59N 46°11' W 001°37'1 2.0
2017-Sep-21 00:30N 46°11' W 001°38'2 3.4
2017-Sep-21 00:00N 46°10' W 001°37'1 2.4
2017-Sep-20 23:27N 46°10' W 001°35'2 3.4
2017-Sep-20 23:00N 46°11' W 001°36'1 2.9
2017-Sep-20 22:30N 46°11' W 001°38'2 3.5
2017-Sep-20 21:48N 46°09' W 001°37'1 1.7
2017-Sep-20 21:05N 46°10' W 001°36'0 2.9
2017-Sep-20 20:55N 46°11' W 001°36'1 2.9
2017-Sep-20 20:30N 46°12' W 001°38'2 2.4
2017-Sep-20 19:52N 46°10' W 001°37'2 3.4
2017-Sep-20 19:25N 46°09' W 001°36'1 2.8
2017-Sep-20 18:53N 46°11' W 001°36'1 3.2
2017-Sep-20 18:30N 46°11' W 001°37'2 3.1
2017-Sep-20 18:00N 46°12' W 001°39'2 3.2
2017-Sep-20 17:30N 46°12' W 001°41'2 0.4
2017-Sep-20 12:22N 46°10' W 001°43'2 3.4
2017-Sep-20 11:48N 46°08' W 001°41'1 3.6
2017-Sep-20 11:27N 46°07' W 001°40'2 3.1
2017-Sep-20 10:44N 46°05' W 001°38'1 3.3
2017-Sep-20 10:30N 46°05' W 001°37'2 3.4
2017-Sep-20 10:00N 46°04' W 001°36'3 3.3
2017-Sep-20 09:06N 46°02' W 001°32'1 2.6
2017-Sep-20 08:49N 46°01' W 001°32'4 2.6
2017-Sep-20 07:10N 46°03' W 001°38'7 1.8
2017-Sep-20 03:19N 46°09' W 001°34'3 8.9
2017-Sep-20 02:58N 46°09' W 001°30'4 8.9
2017-Sep-20 02:30N 46°08' W 001°24'4 8.6
2017-Sep-20 02:00N 46°07' W 001°18'4 7.7
2017-Sep-20 01:30N 46°09' W 001°13'0 0.0
2017-Sep-20 01:00N 46°09' W 001°13'3 6.5
2017-Sep-20 00:30N 46°07' W 001°17'510.6
2017-Sep-20 00:00N 46°08' W 001°24'16 1.0
2017-Sep-19 08:25N 46°09' W 001°47'2 0.6
2017-Sep-19 04:22N 46°11' W 001°47'1 3.3
2017-Sep-19 04:00N 46°12' W 001°47'2 3.3
2017-Sep-19 03:30N 46°14' W 001°48'2 3.4
2017-Sep-19 03:00N 46°16' W 001°48'2 3.1
2017-Sep-19 02:30N 46°17' W 001°50'2 3.0
2017-Sep-19 02:00N 46°15' W 001°50'1 2.5
2017-Sep-19 01:30N 46°14' W 001°49'2 3.2
2017-Sep-19 01:00N 46°13' W 001°48'1 2.2
2017-Sep-19 00:27N 46°12' W 001°47'1 3.1
2017-Sep-19 00:00N 46°14' W 001°47'2 3.2
2017-Sep-18 23:30N 46°15' W 001°48'2 3.2
2017-Sep-18 23:00N 46°17' W 001°49'1 2.1
2017-Sep-18 22:30N 46°16' W 001°50'2 3.3
2017-Sep-18 22:00N 46°14' W 001°49'1 3.0
2017-Sep-18 21:30N 46°13' W 001°48'1 3.0
2017-Sep-18 21:00N 46°12' W 001°47'3 0.8
2017-Sep-18 17:45N 46°09' W 001°47'2 4.2
2017-Sep-18 17:18N 46°11' W 001°49'1 0.1
2017-Sep-18 05:32N 46°10' W 001°47'0 3.1
2017-Sep-18 05:28N 46°10' W 001°47'2 3.1
2017-Sep-18 04:52N 46°12' W 001°48'1 3.1
2017-Sep-18 04:30N 46°13' W 001°49'2 4.5
2017-Sep-18 04:00N 46°15' W 001°49'4 8.9
2017-Sep-18 03:30N 46°19' W 001°48'4 8.9
2017-Sep-18 03:00N 46°24' W 001°47'4 8.8
2017-Sep-18 02:30N 46°28' W 001°47'2 3.6
2017-Sep-18 02:00N 46°30' W 001°47'0 0.0
2017-Sep-18 01:30N 46°30' W 001°47'0 0.0
2017-Sep-18 01:00N 46°30' W 001°47'0 0.4
2017-Sep-18 00:30N 46°30' W 001°47'0 0.1
2017-Sep-18 00:00N 46°30' W 001°47'0 0.0
2017-Sep-17 23:30N 46°30' W 001°47'1 1.3
2017-Sep-17 23:00N 46°29' W 001°47'5 9.1
2017-Sep-17 22:30N 46°25' W 001°48'4 8.3
2017-Sep-17 22:00N 46°21' W 001°50'2 3.3
2017-Sep-17 21:30N 46°19' W 001°50'2 3.4
2017-Sep-17 21:00N 46°18' W 001°49'2 3.2
2017-Sep-17 20:30N 46°16' W 001°48'2 3.4
2017-Sep-17 20:00N 46°15' W 001°47'4 1.6
2017-Sep-17 17:17N 46°11' W 001°47'1 0.1
2017-Sep-17 05:27N 46°10' W 001°46'1 3.0
2017-Sep-17 04:58N 46°11' W 001°47'1 2.9
2017-Sep-17 04:30N 46°12' W 001°49'2 3.6
2017-Sep-17 04:00N 46°13' W 001°51'5 9.0
2017-Sep-17 03:30N 46°16' W 001°55'5 9.2
2017-Sep-17 03:00N 46°20' W 001°60'5 9.3
2017-Sep-17 02:30N 46°23' W 002°04'5 9.3
2017-Sep-17 02:00N 46°27' W 002°08'5 9.2
2017-Sep-17 01:30N 46°30' W 002°13'32 0.8
2017-Sep-15 07:45N 46°59' W 002°32'24 3.8
2017-Sep-15 01:26N 46°37' W 002°18'4 9.1
2017-Sep-15 01:00N 46°36' W 002°13'4 8.9
2017-Sep-15 00:30N 46°34' W 002°07'4 8.8
2017-Sep-15 00:00N 46°32' W 002°01'4 8.7
2017-Sep-14 23:30N 46°30' W 001°56'4 8.6
2017-Sep-14 23:00N 46°28' W 001°50'2 4.6
2017-Sep-14 22:30N 46°30' W 001°48'0 0.5
2017-Sep-14 22:00N 46°30' W 001°47'0 0.0
2017-Sep-14 21:30N 46°30' W 001°47'0 0.0
2017-Sep-14 21:00N 46°30' W 001°47'0 0.0
2017-Sep-14 20:30N 46°30' W 001°47'0 0.0
2017-Sep-14 20:00N 46°30' W 001°47'0 0.0
2017-Sep-14 19:30N 46°30' W 001°47'0 0.0
2017-Sep-14 19:00N 46°30' W 001°47'0 0.0
2017-Sep-14 18:30N 46°30' W 001°47'0 0.0
2017-Sep-14 18:00N 46°30' W 001°47'0 0.0
2017-Sep-14 17:30N 46°30' W 001°47'0 0.0
2017-Sep-14 17:00N 46°30' W 001°47'0 0.0
2017-Sep-14 16:30N 46°30' W 001°47'0 0.0
2017-Sep-14 16:00N 46°30' W 001°47'0 0.0
2017-Sep-14 15:30N 46°30' W 001°47'0 0.0
2017-Sep-14 15:00N 46°30' W 001°47'0 0.0
2017-Sep-14 14:30N 46°30' W 001°47'0 0.0
2017-Sep-14 14:00N 46°30' W 001°47'0 0.0
2017-Sep-14 13:30N 46°30' W 001°47'0 0.0
2017-Sep-14 13:00N 46°30' W 001°47'0 0.0
2017-Sep-14 12:30N 46°30' W 001°47'0 0.0
2017-Sep-14 12:00N 46°30' W 001°47'0 0.0
2017-Sep-14 11:30N 46°30' W 001°47'0 0.0
2017-Sep-14 11:00N 46°30' W 001°47'0 0.0
2017-Sep-14 10:30N 46°30' W 001°47'0 0.0
2017-Sep-14 10:00N 46°30' W 001°47'0 0.0
2017-Sep-14 09:30N 46°30' W 001°47'0 0.0
2017-Sep-14 09:00N 46°30' W 001°47'0 0.0
2017-Sep-14 08:30N 46°30' W 001°47'0 0.0
2017-Sep-14 08:00N 46°30' W 001°47'0 0.0
2017-Sep-14 07:30N 46°30' W 001°47'0 0.0
2017-Sep-14 07:00N 46°30' W 001°47'0 0.0
2017-Sep-14 06:30N 46°30' W 001°47'0 0.0
2017-Sep-14 06:00N 46°30' W 001°47'0 0.0
2017-Sep-14 05:30N 46°30' W 001°47'0 0.0
2017-Sep-14 05:00N 46°30' W 001°47'  
Track history (hours):
 
Tides and Currents Weather Stations Pressure Air Temp Water Temp Dewpoint Dewpoint Depression Visibility Wind Speed Wind Dir Waves Ship Positions

F/V Challenger

Last reported at 2017-Sep-24 05:00 UTC. Time now 2017-Sep-24 05:11 UTC.
Position N 45°60' W 001°41'.

Length 17 m.

Type: Fishing. MMSI: 228120000.

Date/timePositionNaut miles runAvg speedWind from/ knotsBaromVisibWave heightAir tempDewpointWater temp
2017-Sep-24 05:00N 45°60' W 001°41'2 3.3
2017-Sep-24 04:30N 46°01' W 001°43'2 3.2
2017-Sep-24 03:59N 46°02' W 001°44'4 3.4
2017-Sep-24 02:54N 46°04' W 001°49'4 9.1
2017-Sep-24 02:30N 46°05' W 001°54'21 0.4
2017-Sep-22 02:00N 46°25' W 001°49'4 8.9
2017-Sep-22 01:30N 46°29' W 001°47'1 1.3
2017-Sep-22 01:00N 46°30' W 001°48'0 0.1
2017-Sep-22 00:30N 46°30' W 001°48'3 6.7
2017-Sep-22 00:00N 46°26' W 001°48'4 8.2
2017-Sep-21 23:30N 46°23' W 001°50'2 4.3
2017-Sep-21 23:00N 46°21' W 001°51'2 3.2
2017-Sep-21 22:30N 46°20' W 001°53'2 3.0
2017-Sep-21 22:00N 46°20' W 001°55'2 2.8
2017-Sep-21 21:28N 46°19' W 001°57'1 2.8
2017-Sep-21 21:00N 46°19' W 001°59'1 0.6
2017-Sep-21 19:30N 46°18' W 001°59'2 3.4
2017-Sep-21 18:55N 46°18' W 001°56'1 3.5
2017-Sep-21 18:29N 46°19' W 001°54'2 3.3
2017-Sep-21 18:00N 46°20' W 001°55'2 3.1
2017-Sep-21 17:30N 46°21' W 001°56'1 2.0
2017-Sep-21 17:00N 46°20' W 001°57'2 3.3
2017-Sep-21 16:29N 46°19' W 001°56'2 3.3
2017-Sep-21 16:00N 46°18' W 001°55'2 3.3
2017-Sep-21 15:30N 46°16' W 001°54'4 3.3
2017-Sep-21 14:16N 46°13' W 001°51'1 3.3
2017-Sep-21 13:59N 46°12' W 001°50'12 3.3
2017-Sep-21 10:21N 46°03' W 001°39'2 3.5
2017-Sep-21 09:44N 46°02' W 001°36'1 3.5
2017-Sep-21 09:30N 46°01' W 001°36'1 1.6
2017-Sep-21 08:57N 46°01' W 001°37'1 3.0
2017-Sep-21 08:30N 46°02' W 001°38'2 3.0
2017-Sep-21 08:00N 46°03' W 001°40'2 3.0
2017-Sep-21 07:30N 46°04' W 001°41'2 3.8
2017-Sep-21 07:00N 46°06' W 001°43'1 2.8
2017-Sep-21 06:30N 46°07' W 001°44'2 3.1
2017-Sep-21 05:59N 46°08' W 001°45'2 3.2
2017-Sep-21 05:30N 46°09' W 001°47'2 2.5
2017-Sep-21 04:46N 46°08' W 001°47'1 3.4
2017-Sep-21 04:21N 46°06' W 001°45'1 3.4
2017-Sep-21 04:00N 46°05' W 001°44'2 3.1
2017-Sep-21 03:30N 46°06' W 001°42'2 4.7
2017-Sep-21 03:00N 46°08' W 001°41'3 5.8
2017-Sep-21 02:27N 46°11' W 001°38'2 3.1
2017-Sep-21 01:55N 46°09' W 001°36'1 2.6
2017-Sep-21 01:30N 46°10' W 001°35'2 3.7
2017-Sep-21 00:59N 46°11' W 001°37'1 2.0
2017-Sep-21 00:30N 46°11' W 001°38'2 3.4
2017-Sep-21 00:00N 46°10' W 001°37'1 2.4
2017-Sep-20 23:27N 46°10' W 001°35'2 3.4
2017-Sep-20 23:00N 46°11' W 001°36'1 2.9
2017-Sep-20 22:30N 46°11' W 001°38'2 3.5
2017-Sep-20 21:48N 46°09' W 001°37'1 1.7
2017-Sep-20 21:05N 46°10' W 001°36'0 2.9
2017-Sep-20 20:55N 46°11' W 001°36'1 2.9
2017-Sep-20 20:30N 46°12' W 001°38'2 2.4
2017-Sep-20 19:52N 46°10' W 001°37'2 3.4
2017-Sep-20 19:25N 46°09' W 001°36'1 2.8
2017-Sep-20 18:53N 46°11' W 001°36'1 3.2
2017-Sep-20 18:30N 46°11' W 001°37'2 3.1
2017-Sep-20 18:00N 46°12' W 001°39'2 3.2
2017-Sep-20 17:30N 46°12' W 001°41'2 0.4
2017-Sep-20 12:22N 46°10' W 001°43'2 3.4
2017-Sep-20 11:48N 46°08' W 001°41'1 3.6
2017-Sep-20 11:27N 46°07' W 001°40'2 3.1
2017-Sep-20 10:44N 46°05' W 001°38'1 3.3
2017-Sep-20 10:30N 46°05' W 001°37'2 3.4
2017-Sep-20 10:00N 46°04' W 001°36'3 3.3
2017-Sep-20 09:06N 46°02' W 001°32'1 2.6
2017-Sep-20 08:49N 46°01' W 001°32'4 2.6
2017-Sep-20 07:10N 46°03' W 001°38'7 1.8
2017-Sep-20 03:19N 46°09' W 001°34'3 8.9
2017-Sep-20 02:58N 46°09' W 001°30'4 8.9
2017-Sep-20 02:30N 46°08' W 001°24'4 8.6
2017-Sep-20 02:00N 46°07' W 001°18'4 7.7
2017-Sep-20 01:30N 46°09' W 001°13'0 0.0
2017-Sep-20 01:00N 46°09' W 001°13'3 6.5
2017-Sep-20 00:30N 46°07' W 001°17'510.6
2017-Sep-20 00:00N 46°08' W 001°24'16 1.0
2017-Sep-19 08:25N 46°09' W 001°47'2 0.6
2017-Sep-19 04:22N 46°11' W 001°47'1 3.3
2017-Sep-19 04:00N 46°12' W 001°47'2 3.3
2017-Sep-19 03:30N 46°14' W 001°48'2 3.4
2017-Sep-19 03:00N 46°16' W 001°48'2 3.1
2017-Sep-19 02:30N 46°17' W 001°50'2 3.0
2017-Sep-19 02:00N 46°15' W 001°50'1 2.5
2017-Sep-19 01:30N 46°14' W 001°49'2 3.2
2017-Sep-19 01:00N 46°13' W 001°48'1 2.2
2017-Sep-19 00:27N 46°12' W 001°47'1 3.1
2017-Sep-19 00:00N 46°14' W 001°47'2 3.2
2017-Sep-18 23:30N 46°15' W 001°48'2 3.2
2017-Sep-18 23:00N 46°17' W 001°49'1 2.1
2017-Sep-18 22:30N 46°16' W 001°50'2 3.3
2017-Sep-18 22:00N 46°14' W 001°49'1 3.0
2017-Sep-18 21:30N 46°13' W 001°48'1 3.0
2017-Sep-18 21:00N 46°12' W 001°47'3 0.8
2017-Sep-18 17:45N 46°09' W 001°47'2 4.2
2017-Sep-18 17:18N 46°11' W 001°49'1 0.1
2017-Sep-18 05:32N 46°10' W 001°47'0 3.1
2017-Sep-18 05:28N 46°10' W 001°47'2 3.1
2017-Sep-18 04:52N 46°12' W 001°48'1 3.1
2017-Sep-18 04:30N 46°13' W 001°49'2 4.5
2017-Sep-18 04:00N 46°15' W 001°49'4 8.9
2017-Sep-18 03:30N 46°19' W 001°48'4 8.9
2017-Sep-18 03:00N 46°24' W 001°47'4 8.8
2017-Sep-18 02:30N 46°28' W 001°47'2 3.6
2017-Sep-18 02:00N 46°30' W 001°47'0 0.0
2017-Sep-18 01:30N 46°30' W 001°47'0 0.0
2017-Sep-18 01:00N 46°30' W 001°47'0 0.4
2017-Sep-18 00:30N 46°30' W 001°47'0 0.1
2017-Sep-18 00:00N 46°30' W 001°47'0 0.0
2017-Sep-17 23:30N 46°30' W 001°47'1 1.3
2017-Sep-17 23:00N 46°29' W 001°47'5 9.1
2017-Sep-17 22:30N 46°25' W 001°48'4 8.3
2017-Sep-17 22:00N 46°21' W 001°50'2 3.3
2017-Sep-17 21:30N 46°19' W 001°50'2 3.4
2017-Sep-17 21:00N 46°18' W 001°49'2 3.2
2017-Sep-17 20:30N 46°16' W 001°48'2 3.4
2017-Sep-17 20:00N 46°15' W 001°47'4 1.6
2017-Sep-17 17:17N 46°11' W 001°47'1 0.1
2017-Sep-17 05:27N 46°10' W 001°46'1 3.0
2017-Sep-17 04:58N 46°11' W 001°47'1 2.9
2017-Sep-17 04:30N 46°12' W 001°49'2 3.6
2017-Sep-17 04:00N 46°13' W 001°51'5 9.0
2017-Sep-17 03:30N 46°16' W 001°55'5 9.2
2017-Sep-17 03:00N 46°20' W 001°60'5 9.3
2017-Sep-17 02:30N 46°23' W 002°04'5 9.3
2017-Sep-17 02:00N 46°27' W 002°08'5 9.2
2017-Sep-17 01:30N 46°30' W 002°13'32 0.8
2017-Sep-15 07:45N 46°59' W 002°32'24 3.8
2017-Sep-15 01:26N 46°37' W 002°18'4 9.1
2017-Sep-15 01:00N 46°36' W 002°13'4 8.9
2017-Sep-15 00:30N 46°34' W 002°07'4 8.8
2017-Sep-15 00:00N 46°32' W 002°01'4 8.7
2017-Sep-14 23:30N 46°30' W 001°56'4 8.6
2017-Sep-14 23:00N 46°28' W 001°50'2 4.6
2017-Sep-14 22:30N 46°30' W 001°48'0 0.5
2017-Sep-14 22:00N 46°30' W 001°47'0 0.0
2017-Sep-14 21:30N 46°30' W 001°47'0 0.0
2017-Sep-14 21:00N 46°30' W 001°47'0 0.0
2017-Sep-14 20:30N 46°30' W 001°47'0 0.0
2017-Sep-14 20:00N 46°30' W 001°47'0 0.0
2017-Sep-14 19:30N 46°30' W 001°47'0 0.0
2017-Sep-14 19:00N 46°30' W 001°47'0 0.0
2017-Sep-14 18:30N 46°30' W 001°47'0 0.0
2017-Sep-14 18:00N 46°30' W 001°47'0 0.0
2017-Sep-14 17:30N 46°30' W 001°47'0 0.0
2017-Sep-14 17:00N 46°30' W 001°47'0 0.0
2017-Sep-14 16:30N 46°30' W 001°47'0 0.0
2017-Sep-14 16:00N 46°30' W 001°47'0 0.0
2017-Sep-14 15:30N 46°30' W 001°47'0 0.0
2017-Sep-14 15:00N 46°30' W 001°47'0 0.0
2017-Sep-14 14:30N 46°30' W 001°47'0 0.0
2017-Sep-14 14:00N 46°30' W 001°47'0 0.0
2017-Sep-14 13:30N 46°30' W 001°47'0 0.0
2017-Sep-14 13:00N 46°30' W 001°47'0 0.0
2017-Sep-14 12:30N 46°30' W 001°47'0 0.0
2017-Sep-14 12:00N 46°30' W 001°47'0 0.0
2017-Sep-14 11:30N 46°30' W 001°47'0 0.0
2017-Sep-14 11:00N 46°30' W 001°47'0 0.0
2017-Sep-14 10:30N 46°30' W 001°47'0 0.0
2017-Sep-14 10:00N 46°30' W 001°47'0 0.0
2017-Sep-14 09:30N 46°30' W 001°47'0 0.0
2017-Sep-14 09:00N 46°30' W 001°47'0 0.0
2017-Sep-14 08:30N 46°30' W 001°47'0 0.0
2017-Sep-14 08:00N 46°30' W 001°47'0 0.0
2017-Sep-14 07:30N 46°30' W 001°47'0 0.0
2017-Sep-14 07:00N 46°30' W 001°47'0 0.0
2017-Sep-14 06:30N 46°30' W 001°47'0 0.0
2017-Sep-14 06:00N 46°30' W 001°47'0 0.0
2017-Sep-14 05:30N 46°30' W 001°47'0 0.0
2017-Sep-14 05:00N 46°30' W 001°47'  

Dump ship's entire track history